Time;durP1;ratioP1;P1;durP2;ratioP2;P2;SDS_P1;SDS_P2;PMS_P1;PMS_P2;Temp;Humidity;BMP_temperature;BMP_pressure;BME280_temperature;BME280_humidity;BME280_pressure;Samples;Min_cycle;Max_cycle;Signal;HPM_P1;HPM_P2
2022/12/09 00:00:05;;;;;;;6.38;4.40;;;;;;;15.69;55.77;100788.16;6311398;22;20072;-85
2022/12/09 00:02:30;;;;;;;6.13;3.90;;;;;;;15.69;55.74;100793.34;6309592;22;19996;-85
2022/12/09 00:04:56;;;;;;;7.90;4.13;;;;;;;15.68;55.94;100795.09;6308402;22;19991;-86
2022/12/09 00:07:22;;;;;;;6.50;3.88;;;;;;;15.70;55.56;100783.00;6310929;22;19990;-84
2022/12/09 00:09:47;;;;;;;6.63;3.75;;;;;;;15.69;55.65;100785.56;6311066;22;19987;-85
2022/12/09 00:12:13;;;;;;;6.43;3.92;;;;;;;15.69;55.62;100781.25;6299032;22;20063;-85
2022/12/09 00:14:39;;;;;;;6.53;4.10;;;;;;;15.69;55.56;100780.38;6279997;22;20012;-85
2022/12/09 00:19:35;;;;;;;7.25;4.00;;;;;;;15.69;55.63;100785.56;6185025;23;20086;-84
2022/12/09 00:22:00;;;;;;;6.50;4.18;;;;;;;15.68;55.49;100784.72;6160157;23;19997;-86
2022/12/09 00:24:26;;;;;;;5.70;3.92;;;;;;;15.69;55.49;100782.97;6159948;23;19997;-84
2022/12/09 00:26:51;;;;;;;6.72;3.72;;;;;;;15.68;55.70;100784.72;6185068;23;20013;-86
2022/12/09 00:31:55;;;;;;;6.25;3.72;;;;;;;15.67;55.66;100784.72;6271058;22;20014;-84
2022/12/09 00:34:21;;;;;;;5.43;3.67;;;;;;;15.69;55.65;100785.56;6249457;22;20062;-85
2022/12/09 00:36:49;;;;;;;5.43;3.90;;;;;;;15.68;55.35;100786.44;6249447;22;20000;-85
2022/12/09 00:39:15;;;;;;;4.80;3.28;;;;;;;15.69;55.30;100793.34;6249479;22;20008;-83
2022/12/09 00:41:40;;;;;;;4.57;3.40;;;;;;;15.68;55.15;100786.44;6223266;22;20015;-85
2022/12/09 00:44:06;;;;;;;6.22;3.70;;;;;;;15.67;55.43;100776.94;6189555;23;19997;-85
2022/12/09 00:46:31;;;;;;;5.63;3.70;;;;;;;15.67;55.32;100787.31;6207260;23;20013;-85
2022/12/09 00:48:57;;;;;;;5.40;3.05;;;;;;;15.67;55.41;100784.72;6189008;23;20036;-85
2022/12/09 00:51:26;;;;;;;6.60;3.45;;;;;;;15.67;55.41;100780.38;6189061;23;20001;-85
2022/12/09 00:59:02;;;;;;;4.28;3.25;;;;;;;15.67;55.33;100779.53;6244052;22;20004;-84
2022/12/09 01:01:31;;;;;;;5.20;2.90;;;;;;;15.66;55.49;100783.84;6306296;22;20015;-85
2022/12/09 01:06:34;;;;;;;4.85;3.10;;;;;;;15.63;55.44;100784.72;6282324;22;20007;-84
2022/12/09 01:09:01;;;;;;;4.32;3.00;;;;;;;15.64;55.21;100788.19;6279978;22;19988;-85
2022/12/09 01:11:28;;;;;;;4.70;2.83;;;;;;;15.64;55.28;100780.41;6279545;22;20004;-84
2022/12/09 01:19:20;;;;;;;5.25;2.80;;;;;;;15.63;55.33;100783.84;6243549;22;20112;-84
2022/12/09 01:21:46;;;;;;;4.78;2.90;;;;;;;15.64;55.06;100785.59;6240388;22;20004;-85
2022/12/09 01:24:12;;;;;;;3.75;2.70;;;;;;;15.63;55.05;100781.25;6244147;23;19996;-86
2022/12/09 01:26:38;;;;;;;6.43;2.63;;;;;;;15.62;55.40;100780.41;6244264;23;20059;-87
2022/12/09 01:29:04;;;;;;;3.83;2.40;;;;;;;15.62;55.03;100784.72;6236626;23;20005;-84
2022/12/09 01:31:30;;;;;;;4.90;3.00;;;;;;;15.63;55.27;100789.91;6255326;22;20032;-85
2022/12/09 01:33:56;;;;;;;3.67;2.72;;;;;;;15.62;55.01;100795.97;6274706;22;20008;-86
2022/12/09 01:36:26;;;;;;;3.90;2.50;;;;;;;15.61;55.20;100793.38;6274525;22;19993;-84
2022/12/09 01:38:52;;;;;;;4.32;2.70;;;;;;;15.61;55.11;100801.16;6274295;22;19992;-85
2022/12/09 01:44:17;;;;;;;4.35;2.60;;;;;;;15.60;55.49;100796.84;6278339;22;20019;-85
2022/12/09 01:46:44;;;;;;;5.68;2.40;;;;;;;15.60;55.08;100797.69;6309458;22;20050;-84
2022/12/09 01:49:18;;;;;;;3.95;2.58;;;;;;;15.58;55.23;100788.19;6309102;22;19987;-85
2022/12/09 01:51:51;;;;;;;3.63;2.40;;;;;;;15.58;54.61;100789.03;6308805;22;20011;-85
2022/12/09 01:54:17;;;;;;;3.83;2.55;;;;;;;15.57;55.08;100792.53;6308609;22;19979;-83
2022/12/09 01:56:43;;;;;;;4.20;2.25;;;;;;;15.57;55.20;100799.41;6309725;22;20032;-85
2022/12/09 01:59:13;;;;;;;3.63;2.42;;;;;;;15.57;55.01;100794.22;6309198;22;19995;-84
2022/12/09 02:01:40;;;;;;;3.95;2.55;;;;;;;15.56;55.00;100793.38;6308891;22;20019;-84
2022/12/09 02:04:06;;;;;;;4.38;2.70;;;;;;;15.55;55.07;100791.66;6308971;22;20014;-84
2022/12/09 02:06:36;;;;;;;4.15;2.60;;;;;;;15.57;54.85;100791.63;6283112;22;20007;-84
2022/12/09 02:09:02;;;;;;;3.58;2.30;;;;;;;15.56;55.26;100783.00;6309184;22;19979;-85
2022/12/09 02:11:55;;;;;;;2.92;2.30;;;;;;;15.57;54.67;100787.34;6305285;22;20062;-83
2022/12/09 02:14:31;;;;;;;3.28;2.40;;;;;;;15.56;54.97;100788.19;6309230;22;20027;-84
2022/12/09 02:17:20;;;;;;;3.53;2.20;;;;;;;15.55;54.63;100777.84;6309207;22;20332;-84
2022/12/09 02:20:27;;;;;;;3.67;2.35;;;;;;;15.54;55.02;100776.09;6309177;22;19999;-84
2022/12/09 02:23:11;;;;;;;4.25;2.47;;;;;;;15.54;54.72;100784.72;6309435;22;20039;-84
2022/12/09 02:25:45;;;;;;;;;;;;;;;15.55;54.73;100783.03;6292560;22;20432;-79
2022/12/09 02:28:39;;;;;;;3.53;2.33;;;;;;;15.55;54.72;100773.50;6287721;22;19909;-79
2022/12/09 02:31:16;;;;;;;3.10;2.40;;;;;;;15.55;54.73;100777.84;6285936;22;20056;-79
2022/12/09 02:34:09;;;;;;;3.22;2.45;;;;;;;15.53;55.08;100774.38;6315324;22;19999;-79
2022/12/09 02:36:43;;;;;;;3.85;2.47;;;;;;;15.52;54.80;100770.03;6288382;22;20010;-79
2022/12/09 02:39:09;;;;;;;2.85;2.35;;;;;;;15.52;55.04;100770.03;6287871;22;20010;-79
2022/12/09 02:41:39;;;;;;;4.57;2.42;;;;;;;15.52;54.87;100762.25;6239085;22;20003;-79
2022/12/09 02:44:14;;;;;;;3.05;2.40;;;;;;;15.51;54.73;100764.00;6287276;22;20027;-79
2022/12/09 02:46:41;;;;;;;4.18;2.58;;;;;;;15.51;54.88;100765.75;6314499;22;20006;-78
2022/12/09 02:49:07;;;;;;;3.90;2.47;;;;;;;15.51;54.64;100766.59;6286596;22;19996;-79
2022/12/09 02:51:36;;;;;;;3.92;2.40;;;;;;;15.50;55.12;100767.44;6286566;22;20061;-79
2022/12/09 02:54:09;;;;;;;2.63;2.00;;;;;;;15.51;54.85;100765.75;6315860;22;20090;-78
2022/12/09 02:56:36;;;;;;;3.78;2.30;;;;;;;15.50;54.90;100766.59;6289268;22;20003;-78
2022/12/09 02:59:01;;;;;;;3.42;2.40;;;;;;;15.50;54.72;100766.59;6321543;22;20412;-79
2022/12/09 03:01:44;;;;;;;2.95;2.20;;;;;;;15.50;54.57;100770.03;6269768;22;20011;-79
2022/12/09 03:04:16;;;;;;;3.17;2.25;;;;;;;15.49;54.86;100768.31;6296881;22;20011;-79
2022/12/09 03:06:49;;;;;;;3.38;2.30;;;;;;;15.48;54.87;100761.41;6293215;22;20006;-79
2022/12/09 03:09:20;;;;;;;3.07;2.47;;;;;;;15.50;54.58;100769.19;6320242;22;20003;-79
2022/12/09 03:11:46;;;;;;;3.08;2.35;;;;;;;15.48;54.75;100765.72;6291381;22;20023;-78
2022/12/09 03:14:18;;;;;;;3.97;2.60;;;;;;;15.49;54.50;100759.69;6240769;22;20015;-79
2022/12/09 03:17:16;;;;;;;2.95;2.10;;;;;;;15.48;54.60;100757.94;6315768;22;20003;-78
2022/12/09 03:19:51;;;;;;;3.00;2.10;;;;;;;15.47;54.67;100754.50;6288964;22;20044;-79
2022/12/09 03:22:22;;;;;;;2.60;2.28;;;;;;;15.47;54.61;100749.31;6288472;22;20014;-78
2022/12/09 03:24:53;;;;;;;2.75;2.05;;;;;;;15.47;54.79;100753.63;6289894;22;20006;-79
2022/12/09 03:27:35;;;;;;;3.58;2.20;;;;;;;15.45;54.65;100751.03;6288320;22;20447;-78
2022/12/09 03:30:03;;;;;;;3.17;2.40;;;;;;;15.47;54.53;100762.28;6315378;22;20003;-78
2022/12/09 03:32:30;;;;;;;2.72;2.15;;;;;;;15.45;54.69;100756.22;6288831;22;20003;-79
2022/12/09 03:35:02;;;;;;;2.78;2.15;;;;;;;15.46;54.70;100750.19;6292741;22;20484;-79
2022/12/09 03:37:29;;;;;;;3.17;2.10;;;;;;;15.45;54.59;100753.63;6291618;22;20085;-78
2022/12/09 03:39:56;;;;;;;2.58;2.10;;;;;;;15.45;54.73;100745.84;6263957;22;20016;-79
2022/12/09 03:42:28;;;;;;;3.05;2.20;;;;;;;15.43;55.00;100740.66;6288828;22;20030;-79
2022/12/09 03:45:08;;;;;;;3.15;2.10;;;;;;;15.44;54.28;100744.13;6290529;22;20026;-78
2022/12/09 03:47:34;;;;;;;4.00;2.22;;;;;;;15.44;54.69;100744.13;6292143;22;20011;-79
2022/12/09 03:49:59;;;;;;;3.08;2.28;;;;;;;15.44;54.64;100744.13;6265458;22;20006;-79
2022/12/09 03:52:34;;;;;;;2.45;2.05;;;;;;;15.44;54.44;100741.56;6289159;22;20078;-78
2022/12/09 03:55:09;;;;;;;2.97;2.13;;;;;;;15.44;54.34;100738.97;6316604;22;20074;-79
2022/12/09 03:57:39;;;;;;;2.85;2.00;;;;;;;15.43;54.58;100739.81;6289019;22;20424;-78
2022/12/09 04:00:05;;;;;;;2.45;1.98;;;;;;;15.43;54.96;100740.66;6288764;22;19999;-79
2022/12/09 04:02:30;;;;;;;2.20;2.00;;;;;;;15.42;54.41;100738.94;6288634;22;20025;-78
2022/12/09 04:04:56;;;;;;;2.50;1.77;;;;;;;15.42;54.56;100738.94;6288473;22;20003;-79
2022/12/09 04:07:21;;;;;;;2.42;1.70;;;;;;;15.43;54.78;100737.22;6262242;22;20065;-78
2022/12/09 04:09:47;;;;;;;2.83;1.85;;;;;;;15.43;54.82;100738.06;6262444;22;20011;-79
2022/12/09 04:12:12;;;;;;;3.03;1.80;;;;;;;15.45;54.74;100737.22;6262817;22;20014;-79
2022/12/09 04:14:38;;;;;;;3.70;1.65;;;;;;;15.44;54.88;100738.97;6261679;22;20038;-78
2022/12/09 04:17:03;;;;;;;2.05;1.80;;;;;;;15.45;54.66;100737.22;6261901;22;20011;-78
2022/12/09 04:19:28;;;;;;;2.83;1.80;;;;;;;15.43;54.73;100735.47;6262544;22;20013;-79
2022/12/09 04:21:54;;;;;;;2.38;1.80;;;;;;;15.44;54.78;100733.78;6287022;22;20072;-79
2022/12/09 04:24:19;;;;;;;2.33;1.65;;;;;;;15.45;54.77;100732.88;6262292;22;20018;-78
2022/12/09 04:26:45;;;;;;;2.13;1.70;;;;;;;15.46;54.72;100731.16;6261097;22;20015;-78
2022/12/09 04:29:11;;;;;;;1.77;1.33;;;;;;;15.47;54.76;100738.09;6260671;22;20420;-78
2022/12/09 04:31:37;;;;;;;1.90;1.60;;;;;;;15.46;54.59;100736.34;6261089;22;20424;-79
2022/12/09 04:34:03;;;;;;;1.90;1.42;;;;;;;15.46;54.84;100737.22;6261914;22;20094;-78
2022/12/09 04:36:28;;;;;;;1.80;1.48;;;;;;;15.45;54.89;100737.22;6285331;22;20025;-79
2022/12/09 04:38:54;;;;;;;2.03;1.60;;;;;;;15.46;54.78;100739.81;6235467;22;20420;-79
2022/12/09 04:41:19;;;;;;;2.05;1.52;;;;;;;15.45;54.93;100735.47;6285898;22;20090;-79
2022/12/09 04:43:45;;;;;;;2.38;1.40;;;;;;;15.45;54.72;100735.47;6259848;22;20102;-79
2022/12/09 04:46:13;;;;;;;2.17;1.52;;;;;;;15.46;54.77;100736.34;6259482;22;20007;-80
2022/12/09 04:48:39;;;;;;;2.10;1.50;;;;;;;15.45;54.85;100737.22;6285172;22;20090;-79
2022/12/09 04:51:08;;;;;;;1.70;1.40;;;;;;;15.45;54.84;100732.88;6285363;22;19995;-79
2022/12/09 04:53:33;;;;;;;2.28;1.33;;;;;;;15.44;54.79;100738.97;6312417;22;20006;-79
2022/12/09 05:27:01;;;;;;;3.28;1.27;;;;;;;15.42;54.74;100723.38;6313981;22;20027;-84
2022/12/09 05:29:27;;;;;;;1.75;1.10;;;;;;;15.41;54.73;100724.25;6309953;22;19991;-84
2022/12/09 05:31:52;;;;;;;1.63;1.27;;;;;;;15.43;54.75;100726.84;6283158;22;19999;-79
2022/12/09 05:34:19;;;;;;;1.58;1.13;;;;;;;15.44;54.78;100726.00;6255961;22;20011;-78
2022/12/09 05:36:45;;;;;;;1.95;1.30;;;;;;;15.44;55.04;100726.00;6282238;22;20018;-78
2022/12/09 05:39:10;;;;;;;1.63;1.20;;;;;;;15.44;54.94;100723.41;6282258;22;20002;-78
2022/12/09 05:41:35;;;;;;;1.65;1.25;;;;;;;15.45;54.80;100726.84;6255851;22;19999;-78
2022/12/09 05:44:01;;;;;;;1.85;1.13;;;;;;;15.44;54.76;100726.00;6255982;22;20030;-78
2022/12/09 05:46:26;;;;;;;1.77;1.30;;;;;;;15.45;54.92;100719.06;6281725;22;20493;-80
2022/12/09 05:48:51;;;;;;;1.73;1.13;;;;;;;15.43;54.79;100727.69;6231017;22;20010;-80
2022/12/09 05:51:25;;;;;;;1.45;1.00;;;;;;;15.43;54.62;100727.69;6257282;22;20011;-80
2022/12/09 05:53:52;;;;;;;2.08;1.25;;;;;;;15.44;54.78;100726.00;6310664;22;20006;-80
2022/12/09 05:56:19;;;;;;;1.67;1.20;;;;;;;15.42;54.79;100723.38;6308858;22;20082;-81
2022/12/09 05:58:46;;;;;;;1.70;1.15;;;;;;;15.42;54.72;100723.38;6255859;22;20034;-80
2022/12/09 06:01:12;;;;;;;1.70;1.30;;;;;;;15.41;54.72;100721.66;6255783;22;20023;-80
2022/12/09 06:03:37;;;;;;;2.58;1.10;;;;;;;15.48;54.90;100719.03;6285127;22;20011;-78
2022/12/09 06:06:08;;;;;;;1.88;1.30;;;;;;;15.49;54.68;100719.06;6258890;22;20063;-76
2022/12/09 06:08:34;;;;;;;1.77;1.20;;;;;;;15.51;54.93;100719.06;6310556;22;19995;-78
2022/12/09 06:11:00;;;;;;;1.80;1.13;;;;;;;15.51;54.82;100721.66;6310178;22;20060;-78
2022/12/09 06:13:26;;;;;;;3.08;1.40;;;;;;;15.51;54.67;100717.31;6256912;22;20030;-79
2022/12/09 06:15:51;;;;;;;2.80;1.38;;;;;;;15.50;54.51;100717.31;6267950;22;20015;-78
2022/12/09 06:18:17;;;;;;;4.32;1.42;;;;;;;15.51;54.80;100717.31;6272046;22;20003;-82
2022/12/09 06:20:42;;;;;;;2.85;1.33;;;;;;;15.49;54.96;100713.88;6267245;22;20021;-81
2022/12/09 06:23:08;;;;;;;3.30;1.40;;;;;;;15.49;54.81;100713.00;6227921;22;20003;-80
2022/12/09 06:25:34;;;;;;;2.85;1.40;;;;;;;15.47;54.87;100713.00;6202356;22;20023;-80
2022/12/09 06:28:00;;;;;;;1.80;1.35;;;;;;;15.48;54.66;100713.84;6252898;22;20026;-79
2022/12/09 06:33:02;;;;;;;3.47;1.60;;;;;;;15.46;54.62;100725.97;6316964;22;20511;-82
2022/12/09 06:44:34;;;;;;;3.10;1.40;;;;;;;15.52;55.23;100702.63;6327454;22;20056;-85
2022/12/09 17:46:01;;;;;;;5.72;2.90;;;;;;;15.79;53.52;100745.81;6281472;22;20058;-82
2022/12/09 17:51:49;;;;;;;7.80;3.33;;;;;;;15.89;53.61;100741.44;6280058;22;20013;-80
2022/12/09 17:54:15;;;;;;;5.47;3.17;;;;;;;15.93;53.28;100738.81;6255676;22;20106;-80
2022/12/09 17:56:40;;;;;;;6.35;3.15;;;;;;;15.95;53.70;100738.81;6255627;22;20069;-80
2022/12/09 17:59:09;;;;;;;7.07;2.88;;;;;;;15.96;53.52;100738.81;6256299;22;20010;-80
2022/12/09 18:01:36;;;;;;;3.90;2.90;;;;;;;15.97;53.90;100739.69;6285637;22;19999;-78
2022/12/09 18:04:45;;;;;;;5.05;3.40;;;;;;;15.95;54.21;100736.22;6269169;22;20008;-83
2022/12/09 18:10:14;;;;;;;4.55;3.47;;;;;;;15.91;54.27;100735.34;6230354;23;20012;-80
2022/12/09 18:12:40;;;;;;;3.97;3.30;;;;;;;15.89;54.05;100734.50;6219945;23;20020;-80
2022/12/09 18:15:05;;;;;;;4.28;3.40;;;;;;;15.90;54.23;100735.38;6221388;23;20051;-81
2022/12/09 18:17:34;;;;;;;7.32;3.10;;;;;;;15.88;54.05;100735.38;6204130;23;20013;-81
2022/12/09 18:59:04;;;;;;;4.65;3.58;;;;;;;15.84;54.12;100770.00;6264711;22;20106;-81
2022/12/09 19:01:32;;;;;;;3.80;3.38;;;;;;;15.84;54.04;100768.25;6301151;22;20090;-81
2022/12/09 19:04:18;;;;;;;4.22;3.40;;;;;;;15.89;54.07;100772.56;6331514;22;20006;-81
2022/12/09 19:06:57;;;;;;;3.58;3.10;;;;;;;15.90;54.13;100771.72;6333488;22;20000;-82
2022/12/09 19:10:10;;;;;;;5.30;3.40;;;;;;;15.92;54.04;100773.44;6213919;23;20008;-83
2022/12/09 19:12:42;;;;;;;3.90;3.13;;;;;;;15.93;53.86;100766.50;6238722;23;20021;-82
2022/12/09 19:15:08;;;;;;;3.30;2.97;;;;;;;15.92;54.04;100773.44;6210641;23;20016;-81
2022/12/09 19:18:17;;;;;;;4.18;3.53;;;;;;;15.91;53.98;100776.03;6178836;23;20039;-81
2022/12/09 19:20:50;;;;;;;3.33;3.03;;;;;;;15.88;54.06;100771.72;6235071;23;20426;-81
2022/12/09 19:23:24;;;;;;;3.78;3.20;;;;;;;15.89;54.26;100769.97;6235024;23;20044;-81
2022/12/09 19:36:16;;;;;;;7.47;3.33;;;;;;;15.84;54.35;100781.22;6240615;23;20043;-82
2022/12/09 19:39:04;;;;;;;3.90;3.40;;;;;;;15.83;54.38;100796.81;6214250;23;20012;-83
2022/12/09 19:42:28;;;;;;;4.10;3.50;;;;;;;15.83;54.20;100792.50;6320072;22;20004;-83
2022/12/09 19:44:55;;;;;;;5.25;4.20;;;;;;;15.82;54.13;100784.72;6299533;22;20003;-82
2022/12/09 19:50:21;;;;;;;;;;;;;;;15.82;54.32;100782.09;6334848;22;20018;-81
2022/12/09 19:53:27;;;;;;;3.92;3.50;;;;;;;15.82;54.17;100784.72;6279697;22;19938;-83
2022/12/09 19:59:06;;;;;;;4.55;3.75;;;;;;;15.85;54.24;100782.09;6288437;22;20047;-82
2022/12/09 20:33:51;;;;;;;4.57;4.05;;;;;;;15.76;54.54;100797.69;6241736;23;19966;-86
2022/12/09 20:40:16;;;;;;;6.07;4.50;;;;;;;15.76;54.65;100798.53;6242791;23;20051;-86
2022/12/09 21:07:01;;;;;;;6.80;5.00;;;;;;;15.74;54.36;100815.88;6280902;22;20018;-87
2022/12/09 22:39:37;;;;;;;14.02;8.15;;;;;;;15.42;54.09;100841.81;6306571;22;19922;-86
2022/12/09 23:06:11;;;;;;;10.75;7.80;;;;;;;15.37;53.56;100856.50;6328173;22;20075;-86
2022/12/09 23:08:43;;;;;;;9.27;7.38;;;;;;;15.38;53.79;100856.50;6209567;23;20013;-85
2022/12/09 23:15:24;;;;;;;9.65;6.95;;;;;;;15.37;53.65;100865.16;6329884;22;20018;-87
2022/12/09 23:23:03;;;;;;;9.45;7.72;;;;;;;15.37;53.78;100856.50;6307100;22;19999;-85
2022/12/09 23:44:26;;;;;;;12.65;7.10;;;;;;;15.35;53.66;100866.00;6292776;22;20020;-84
2022/12/09 23:50:16;;;;;;;10.20;7.50;;;;;;;15.35;53.59;100855.63;6307289;22;20056;-84
